createdAt,value
2022-10-02T11:39:12.993Z,100040.97
2022-10-02T11:42:18.711Z,100051.69
2022-10-02T11:45:37.098Z,100062.09
2022-10-02T11:48:36.041Z,100078.28
2022-10-02T11:51:32.687Z,100063.38
2022-10-02T11:54:17.655Z,100051.78
2022-10-02T11:57:02.061Z,100055.38
2022-10-02T11:59:53.864Z,100042.91
2022-10-02T12:03:02.138Z,100062.06
2022-10-02T12:06:02.833Z,100061.22
2022-10-02T12:08:51.520Z,100059.22
2022-10-02T12:11:46.414Z,100070.72
2022-10-02T12:14:44.823Z,100074.19
2022-10-02T12:17:11.701Z,100078.53
2022-10-02T12:20:37.254Z,100079.47
2022-10-02T12:24:04.031Z,100097.66
2022-10-02T12:27:09.734Z,100080.16
2022-10-02T12:30:07.589Z,100074.63
2022-10-02T12:33:28.037Z,100066.47
2022-10-02T12:36:35.732Z,100061.56
2022-10-02T12:39:39.353Z,100068.25
2022-10-02T12:42:40.956Z,100064.31
2022-10-02T12:45:44.009Z,100054.44
2022-10-02T12:49:04.013Z,100053.22
2022-10-02T12:51:36.021Z,100058.19
2022-10-02T12:54:33.650Z,100064.84
2022-10-02T12:57:51.342Z,100073.13
2022-10-02T13:00:37.876Z,100062.78
2022-10-02T13:03:36.543Z,100067.78
2022-10-02T13:06:22.774Z,100071.50
2022-10-02T13:09:05.145Z,100071.69
2022-10-02T13:12:22.008Z,100071.94
2022-10-02T13:15:07.151Z,100083.94
2022-10-02T13:18:11.994Z,100094.06
2022-10-02T13:21:30.873Z,100089.94
2022-10-02T13:24:47.163Z,100076.91
2022-10-02T13:28:01.838Z,100050.44
2022-10-02T13:30:43.068Z,100049.22
2022-10-02T13:33:37.072Z,100063.69
2022-10-02T13:36:51.633Z,100067.44
2022-10-02T13:40:03.121Z,100064.13
2022-10-02T13:42:46.861Z,100070.56
2022-10-02T13:45:33.342Z,100079.44
2022-10-02T13:48:25.674Z,100068.69
2022-10-02T13:51:42.361Z,100072.41
2022-10-02T13:54:48.051Z,100081.50
2022-10-02T13:57:54.131Z,100076.13
2022-10-02T14:01:05.928Z,100096.78
2022-10-02T14:04:11.475Z,100098.88
2022-10-02T14:07:18.968Z,100094.53
2022-10-02T14:10:05.027Z,100094.13
2022-10-02T14:13:03.092Z,100102.00
2022-10-02T14:15:43.147Z,100091.88
2022-10-02T14:18:48.680Z,100074.53
2022-10-02T14:21:38.388Z,100077.66
2022-10-02T14:24:44.592Z,100079.09
2022-10-02T14:27:58.492Z,100077.06
2022-10-02T14:30:55.095Z,100081.63
2022-10-02T14:34:09.668Z,100072.91
2022-10-02T14:37:23.972Z,100076.66
2022-10-02T14:39:52.950Z,100079.31
2022-10-02T14:42:57.837Z,100073.13
2022-10-02T14:45:40.044Z,100069.63
2022-10-02T14:48:47.159Z,100066.13
2022-10-02T14:51:46.866Z,100050.84
2022-10-02T14:55:01.859Z,100048.16
2022-10-02T14:58:02.780Z,100057.84
2022-10-02T15:00:55.043Z,100068.38
2022-10-02T15:03:34.494Z,100064.88
2022-10-02T15:06:30.226Z,100070.03
2022-10-02T15:09:06.283Z,100069.00
2022-10-02T15:11:36.552Z,100066.94
2022-10-02T15:14:16.127Z,100073.13
2022-10-02T15:17:19.528Z,100077.44
2022-10-02T15:20:06.354Z,100079.09
2022-10-02T15:22:47.717Z,100082.81
2022-10-02T15:25:55.376Z,100083.66
2022-10-02T15:28:54.098Z,100089.44
2022-10-02T15:32:05.417Z,100086.97
2022-10-02T15:34:47.792Z,100082.63
2022-10-02T15:37:37.014Z,100069.63
2022-10-02T15:40:35.307Z,100085.75
2022-10-02T15:43:15.157Z,100086.78
2022-10-02T15:46:03.194Z,100099.56
2022-10-02T15:48:47.895Z,100101.44
2022-10-02T15:51:36.607Z,100109.69
2022-10-02T15:54:35.076Z,100110.94
2022-10-02T15:57:48.783Z,100113.00
2022-10-02T16:00:22.718Z,100113.22
2022-10-02T16:03:22.441Z,100114.25
2022-10-02T16:06:06.477Z,100108.06
2022-10-02T16:09:05.842Z,100121.69
2022-10-02T16:12:17.382Z,100135.13
2022-10-02T16:14:47.247Z,100146.91
2022-10-02T16:17:36.007Z,100141.91
2022-10-02T16:20:21.523Z,100141.91
2022-10-02T16:23:24.142Z,100140.69
2022-10-02T16:26:50.896Z,100147.50
2022-10-02T16:29:42.092Z,100153.47
2022-10-02T16:32:54.460Z,100148.53
2022-10-02T16:35:43.776Z,100149.34
2022-10-02T16:38:51.044Z,100158.00
2022-10-02T16:41:48.495Z,100158.44
2022-10-02T16:44:57.502Z,100159.66
2022-10-02T16:47:45.424Z,100165.84
2022-10-02T16:53:59.635Z,100168.94
2022-10-02T16:56:49.463Z,100180.09
2022-10-02T16:59:32.359Z,100185.63
2022-10-02T17:02:18.015Z,100183.16
2022-10-02T17:05:45.671Z,100182.56
2022-10-02T17:08:45.731Z,100185.63
2022-10-02T17:11:37.940Z,100178.63
2022-10-02T17:14:41.894Z,100169.13
2022-10-02T17:17:51.025Z,100178.22
2022-10-02T17:20:33.927Z,100195.50
2022-10-02T17:23:37.362Z,100201.69
2022-10-02T17:26:14.608Z,100182.31
2022-10-02T17:29:01.733Z,100190.53
2022-10-02T17:31:58.598Z,100194.25
2022-10-02T17:34:49.085Z,100201.66
2022-10-02T17:37:44.101Z,100207.44
2022-10-02T17:40:31.790Z,100214.44
2022-10-02T17:43:37.209Z,100218.16
2022-10-02T17:46:31.751Z,100220.84
2022-10-02T17:49:26.949Z,100237.97
2022-10-02T17:52:57.273Z,100237.13
2022-10-02T17:56:12.957Z,100236.69
2022-10-02T17:59:12.886Z,100251.13
2022-10-02T18:02:07.864Z,100258.56
2022-10-02T18:05:25.910Z,100258.72
2022-10-02T18:08:16.066Z,100262.28
2022-10-02T18:11:33.224Z,100262.28
2022-10-02T18:14:26.219Z,100262.28
2022-10-02T18:17:15.602Z,100269.66
2022-10-02T18:19:42.903Z,100260.59
2022-10-02T18:22:33.840Z,100269.03
2022-10-02T18:25:23.958Z,100279.34
2022-10-02T18:28:21.721Z,100284.09
2022-10-02T18:31:50.900Z,100284.09
2022-10-02T18:34:53.667Z,100281.41
2022-10-02T18:37:27.153Z,100282.25
2022-10-02T18:40:28.232Z,100287.81
2022-10-02T18:42:55.114Z,100289.25
2022-10-02T18:45:40.870Z,100299.38
2022-10-02T18:48:51.521Z,100303.69
2022-10-02T18:51:45.710Z,100304.53
2022-10-02T18:54:46.759Z,100313.38
2022-10-02T18:57:38.102Z,100312.19
2022-10-02T19:00:21.994Z,100313.84
2022-10-02T19:03:00.704Z,100305.16
2022-10-02T19:05:32.870Z,100315.91
2022-10-02T19:08:17.945Z,100313.22
2022-10-02T19:10:46.823Z,100318.16
2022-10-02T19:13:28.796Z,100328.44
2022-10-02T19:15:58.734Z,100340.66
2022-10-02T19:18:32.818Z,100337.97
2022-10-02T19:21:13.352Z,100341.47
2022-10-02T19:24:01.381Z,100346.63
2022-10-02T19:26:34.570Z,100344.56
2022-10-02T19:29:26.934Z,100356.31
2022-10-02T19:31:58.628Z,100356.13
2022-10-02T19:34:31.009Z,100365.03
2022-10-02T19:37:04.604Z,100362.34
2022-10-02T19:39:42.917Z,100367.06
2022-10-02T19:42:40.534Z,100369.13
2022-10-02T19:45:24.375Z,100380.47
2022-10-02T19:48:06.844Z,100379.84
2022-10-02T19:51:01.490Z,100402.31
2022-10-02T19:53:50.525Z,100401.50
2022-10-02T19:56:34.411Z,100405.81
2022-10-02T19:59:41.774Z,100408.72
2022-10-02T20:02:40.669Z,100419.44
2022-10-02T20:05:19.196Z,100424.78
2022-10-02T20:07:49.789Z,100408.72
2022-10-02T20:10:45.911Z,100417.78
2022-10-02T20:13:26.631Z,100423.16
2022-10-02T20:16:45.891Z,100423.16
2022-10-02T20:19:29.733Z,100423.50
2022-10-02T20:22:02.002Z,100435.91
2022-10-02T20:24:58.913Z,100433.41
2022-10-02T20:27:46.367Z,100446.00
2022-10-02T20:30:18.876Z,100443.13
2022-10-02T20:33:15.297Z,100448.69
2022-10-02T20:36:16.757Z,100454.03
2022-10-02T20:38:52.374Z,100459.41
2022-10-02T20:41:29.054Z,100470.13
2022-10-02T20:44:04.359Z,100467.44
2022-10-02T20:46:35.735Z,100477.34
2022-10-02T20:49:40.254Z,100481.22
2022-10-02T20:52:46.052Z,100481.22
2022-10-02T20:55:30.244Z,100481.22
2022-10-02T20:58:34.903Z,100482.91
2022-10-02T21:01:28.666Z,100483.72
2022-10-02T21:04:39.654Z,100482.91
2022-10-02T21:07:18.349Z,100489.72
2022-10-02T21:10:16.214Z,100494.47
2022-10-02T21:13:24.229Z,100504.34
2022-10-02T21:16:36.226Z,100511.56
2022-10-02T21:20:14.067Z,100515.72
2022-10-02T21:22:47.994Z,100513.03
2022-10-02T21:25:44.637Z,100519.63
2022-10-02T21:29:06.049Z,100516.94
2022-10-02T21:31:51.562Z,100520.81
2022-10-02T21:34:49.656Z,100525.53
2022-10-02T21:37:36.604Z,100530.91
2022-10-02T21:40:37.666Z,100532.75
2022-10-02T21:43:23.323Z,100531.94
2022-10-02T21:47:00.084Z,100538.69
2022-10-02T21:50:16.938Z,100539.72
2022-10-02T21:53:19.028Z,100541.38
2022-10-02T21:56:20.018Z,100542.59
2022-10-02T21:59:30.222Z,100548.78
2022-10-02T22:02:48.966Z,100546.91
2022-10-02T22:05:34.602Z,100549.97
2022-10-02T22:09:01.602Z,100546.84
2022-10-02T22:12:14.235Z,100546.59
2022-10-02T22:14:58.186Z,100543.28
2022-10-02T22:18:04.876Z,100549.00
2022-10-02T22:21:21.190Z,100554.75
2022-10-02T22:23:56.898Z,100548.56
2022-10-02T22:26:32.656Z,100558.47
2022-10-02T22:29:13.613Z,100557.16
2022-10-02T22:32:29.726Z,100563.34
2022-10-02T22:35:52.104Z,100563.75
2022-10-02T22:38:56.623Z,100566.59
2022-10-02T22:41:30.854Z,100570.28
2022-10-02T22:44:16.401Z,100575.03
2022-10-02T22:47:09.946Z,100578.72
2022-10-02T22:49:50.229Z,100576.03
2022-10-02T22:52:47.480Z,100575.41
2022-10-02T22:55:21.218Z,100582.44
2022-10-02T22:58:18.100Z,100584.63
2022-10-02T23:01:48.553Z,100586.69
2022-10-02T23:04:38.359Z,100592.41
2022-10-02T23:07:44.000Z,100594.44
2022-10-02T23:10:45.140Z,100591.94
2022-10-02T23:13:16.457Z,100593.59
2022-10-02T23:15:59.851Z,100590.28
2022-10-02T23:18:45.243Z,100585.97
2022-10-02T23:21:55.857Z,100588.63
2022-10-02T23:25:00.291Z,100585.28
2022-10-02T23:27:57.037Z,100593.53
2022-10-02T23:30:24.651Z,100596.19
2022-10-02T23:33:19.026Z,100595.75
2022-10-02T23:36:03.252Z,100600.44
2022-10-02T23:39:02.422Z,100607.03
2022-10-02T23:41:48.831Z,100616.25
2022-10-02T23:44:55.688Z,100617.25
2022-10-02T23:47:46.738Z,100620.13
2022-10-02T23:50:48.696Z,100617.66
2022-10-02T23:53:41.285Z,100610.78
2022-10-02T23:56:40.224Z,100616.34
2022-10-02T23:59:34.484Z,100611.38
